sensor_id;sensor_type;location;lat;lon;timestamp;pressure;altitude;pressure_sealevel;temperature;humidity
75594;BME280;64176;49.156;7.810;2023-04-15T00:00:39;98263.88;;;3.10;80.03
75594;BME280;64176;49.156;7.810;2023-04-15T00:03:23;98273.31;;;3.13;80.23
75594;BME280;64176;49.156;7.810;2023-04-15T00:06:07;98283.97;;;2.92;80.65
75594;BME280;64176;49.156;7.810;2023-04-15T00:08:53;98269.44;;;2.89;81.07
75594;BME280;64176;49.156;7.810;2023-04-15T00:11:38;98275.91;;;2.72;81.90
75594;BME280;64176;49.156;7.810;2023-04-15T00:14:22;98280.88;;;2.66;81.71
75594;BME280;64176;49.156;7.810;2023-04-15T00:17:11;98278.22;;;2.60;82.10
75594;BME280;64176;49.156;7.810;2023-04-15T00:19:55;98281.34;;;2.89;81.65
75594;BME280;64176;49.156;7.810;2023-04-15T00:22:39;98266.13;;;2.93;80.72
75594;BME280;64176;49.156;7.810;2023-04-15T00:25:24;98273.66;;;2.87;80.81
75594;BME280;64176;49.156;7.810;2023-04-15T00:28:08;98280.34;;;2.81;81.29
75594;BME280;64176;49.156;7.810;2023-04-15T00:30:55;98276.09;;;2.81;81.07
75594;BME280;64176;49.156;7.810;2023-04-15T00:33:41;98264.41;;;2.92;80.57
75594;BME280;64176;49.156;7.810;2023-04-15T00:36:28;98267.69;;;2.85;80.71
75594;BME280;64176;49.156;7.810;2023-04-15T00:39:17;98271.97;;;2.46;81.89
75594;BME280;64176;49.156;7.810;2023-04-15T00:42:04;98258.69;;;2.61;81.69
75594;BME280;64176;49.156;7.810;2023-04-15T00:44:53;98265.34;;;2.55;81.37
75594;BME280;64176;49.156;7.810;2023-04-15T00:47:40;98267.69;;;2.45;82.43
75594;BME280;64176;49.156;7.810;2023-04-15T00:50:25;98265.28;;;2.51;81.80
75594;BME280;64176;49.156;7.810;2023-04-15T00:53:09;98260.63;;;2.33;81.75
75594;BME280;64176;49.156;7.810;2023-04-15T00:55:53;98253.56;;;2.61;80.82
75594;BME280;64176;49.156;7.810;2023-04-15T00:58:37;98263.63;;;2.53;81.01
75594;BME280;64176;49.156;7.810;2023-04-15T01:01:23;98256.66;;;2.46;81.25
75594;BME280;64176;49.156;7.810;2023-04-15T01:04:07;98271.81;;;2.38;82.22
75594;BME280;64176;49.156;7.810;2023-04-15T01:06:55;98263.28;;;2.38;81.54
75594;BME280;64176;49.156;7.810;2023-04-15T01:09:42;98257.78;;;1.82;82.78
75594;BME280;64176;49.156;7.810;2023-04-15T01:12:36;98255.88;;;2.09;82.75
75594;BME280;64176;49.156;7.810;2023-04-15T01:15:24;98261.97;;;2.16;82.59
75594;BME280;64176;49.156;7.810;2023-04-15T01:18:10;98258.59;;;2.17;82.45
75594;BME280;64176;49.156;7.810;2023-04-15T01:20:55;98258.50;;;2.14;82.81
75594;BME280;64176;49.156;7.810;2023-04-15T01:23:45;98241.84;;;1.91;83.17
75594;BME280;64176;49.156;7.810;2023-04-15T01:26:34;98247.38;;;2.10;83.17
75594;BME280;64176;49.156;7.810;2023-04-15T01:29:18;98265.53;;;1.88;84.07
75594;BME280;64176;49.156;7.810;2023-04-15T01:32:05;98276.09;;;2.03;83.01
75594;BME280;64176;49.156;7.810;2023-04-15T01:34:49;98277.25;;;1.80;84.12
75594;BME280;64176;49.156;7.810;2023-04-15T01:37:39;98275.72;;;1.87;83.43
75594;BME280;64176;49.156;7.810;2023-04-15T01:40:26;98271.75;;;1.98;81.98
75594;BME280;64176;49.156;7.810;2023-04-15T01:43:10;98278.88;;;1.42;84.64
75594;BME280;64176;49.156;7.810;2023-04-15T01:45:56;98280.31;;;1.32;84.56
75594;BME280;64176;49.156;7.810;2023-04-15T01:48:43;98273.97;;;1.50;84.80
75594;BME280;64176;49.156;7.810;2023-04-15T01:51:29;98276.22;;;1.72;83.72
75594;BME280;64176;49.156;7.810;2023-04-15T01:54:15;98272.97;;;1.79;83.39
75594;BME280;64176;49.156;7.810;2023-04-15T01:57:02;98274.28;;;1.98;82.44
75594;BME280;64176;49.156;7.810;2023-04-15T01:59:51;98257.97;;;1.91;82.72
75594;BME280;64176;49.156;7.810;2023-04-15T02:02:35;98258.19;;;2.00;81.72
75594;BME280;64176;49.156;7.810;2023-04-15T02:05:19;98266.94;;;1.74;82.65
75594;BME280;64176;49.156;7.810;2023-04-15T02:08:06;98268.91;;;1.51;83.88
75594;BME280;64176;49.156;7.810;2023-04-15T02:10:56;98252.47;;;1.38;83.42
75594;BME280;64176;49.156;7.810;2023-04-15T02:13:44;98266.41;;;1.53;84.25
75594;BME280;64176;49.156;7.810;2023-04-15T02:16:28;98245.88;;;1.46;83.69
75594;BME280;64176;49.156;7.810;2023-04-15T02:19:12;98259.69;;;1.23;85.04
75594;BME280;64176;49.156;7.810;2023-04-15T02:21:58;98265.19;;;1.05;85.64
75594;BME280;64176;49.156;7.810;2023-04-15T02:24:44;98264.97;;;0.98;86.20
75594;BME280;64176;49.156;7.810;2023-04-15T02:27:32;98260.28;;;1.46;84.65
75594;BME280;64176;49.156;7.810;2023-04-15T02:30:16;98270.81;;;1.27;84.11
75594;BME280;64176;49.156;7.810;2023-04-15T02:33:05;98268.50;;;1.36;84.01
75594;BME280;64176;49.156;7.810;2023-04-15T02:35:52;98273.13;;;1.51;83.90
75594;BME280;64176;49.156;7.810;2023-04-15T02:38:38;98266.72;;;1.66;83.20
75594;BME280;64176;49.156;7.810;2023-04-15T02:41:26;98264.72;;;1.53;83.73
75594;BME280;64176;49.156;7.810;2023-04-15T02:44:11;98270.16;;;1.34;83.99
75594;BME280;64176;49.156;7.810;2023-04-15T02:46:55;98263.63;;;1.43;83.46
75594;BME280;64176;49.156;7.810;2023-04-15T02:49:40;98264.19;;;1.32;83.84
75594;BME280;64176;49.156;7.810;2023-04-15T02:52:27;98266.94;;;1.08;85.03
75594;BME280;64176;49.156;7.810;2023-04-15T02:55:11;98268.31;;;1.28;84.08
75594;BME280;64176;49.156;7.810;2023-04-15T02:57:55;98271.81;;;1.32;84.11
75594;BME280;64176;49.156;7.810;2023-04-15T03:00:42;98258.22;;;1.31;83.79
75594;BME280;64176;49.156;7.810;2023-04-15T03:03:29;98263.56;;;1.40;83.46
75594;BME280;64176;49.156;7.810;2023-04-15T03:06:16;98273.03;;;1.15;84.62
75594;BME280;64176;49.156;7.810;2023-04-15T03:09:02;98275.44;;;0.77;86.21
75594;BME280;64176;49.156;7.810;2023-04-15T03:11:50;98270.00;;;0.66;87.02
75594;BME280;64176;49.156;7.810;2023-04-15T03:14:41;98270.00;;;0.65;85.58
75594;BME280;64176;49.156;7.810;2023-04-15T03:17:27;98266.66;;;0.97;85.43
75594;BME280;64176;49.156;7.810;2023-04-15T03:20:16;98268.09;;;1.19;84.62
75594;BME280;64176;49.156;7.810;2023-04-15T03:23:03;98266.38;;;1.18;84.39
75594;BME280;64176;49.156;7.810;2023-04-15T03:25:47;98262.81;;;1.13;84.71
75594;BME280;64176;49.156;7.810;2023-04-15T03:28:34;98260.72;;;1.30;84.10
75594;BME280;64176;49.156;7.810;2023-04-15T03:31:22;98250.59;;;1.33;83.73
75594;BME280;64176;49.156;7.810;2023-04-15T03:34:11;98253.91;;;1.29;84.18
75594;BME280;64176;49.156;7.810;2023-04-15T03:36:55;98257.31;;;1.29;83.94
75594;BME280;64176;49.156;7.810;2023-04-15T03:39:43;98250.56;;;1.30;84.01
75594;BME280;64176;49.156;7.810;2023-04-15T03:42:30;98260.75;;;1.00;85.04
75594;BME280;64176;49.156;7.810;2023-04-15T03:45:14;98267.38;;;0.93;85.23
75594;BME280;64176;49.156;7.810;2023-04-15T03:47:58;98267.28;;;0.90;84.80
75594;BME280;64176;49.156;7.810;2023-04-15T03:50:45;98256.31;;;0.91;84.27
75594;BME280;64176;49.156;7.810;2023-04-15T03:53:31;98269.78;;;0.87;84.15
75594;BME280;64176;49.156;7.810;2023-04-15T03:56:15;98262.63;;;0.46;85.84
75594;BME280;64176;49.156;7.810;2023-04-15T03:59:02;98264.13;;;0.67;85.63
75594;BME280;64176;49.156;7.810;2023-04-15T04:01:46;98263.94;;;0.91;84.69
75594;BME280;64176;49.156;7.810;2023-04-15T04:04:30;98277.81;;;1.02;84.19
75594;BME280;64176;49.156;7.810;2023-04-15T04:07:16;98272.13;;;0.81;85.07
75594;BME280;64176;49.156;7.810;2023-04-15T04:10:04;98270.41;;;0.80;85.69
75594;BME280;64176;49.156;7.810;2023-04-15T04:12:51;98277.25;;;0.83;85.63
75594;BME280;64176;49.156;7.810;2023-04-15T04:15:35;98273.19;;;0.88;85.03
75594;BME280;64176;49.156;7.810;2023-04-15T04:18:21;98250.09;;;0.82;84.57
75594;BME280;64176;49.156;7.810;2023-04-15T04:21:08;98247.66;;;0.85;84.35
75594;BME280;64176;49.156;7.810;2023-04-15T04:23:57;98280.19;;;0.96;84.05
75594;BME280;64176;49.156;7.810;2023-04-15T04:26:44;98270.69;;;0.91;84.28
75594;BME280;64176;49.156;7.810;2023-04-15T04:29:28;98278.13;;;0.83;84.28
75594;BME280;64176;49.156;7.810;2023-04-15T04:32:14;98290.97;;;0.88;84.47
75594;BME280;64176;49.156;7.810;2023-04-15T04:35:01;98284.91;;;0.83;84.62
75594;BME280;64176;49.156;7.810;2023-04-15T04:37:48;98279.34;;;0.66;84.98
75594;BME280;64176;49.156;7.810;2023-04-15T04:40:35;98280.31;;;0.71;84.92
75594;BME280;64176;49.156;7.810;2023-04-15T04:43:19;98283.25;;;0.85;84.38
75594;BME280;64176;49.156;7.810;2023-04-15T04:46:05;98272.94;;;0.80;84.43
75594;BME280;64176;49.156;7.810;2023-04-15T04:48:49;98285.63;;;0.79;84.79
75594;BME280;64176;49.156;7.810;2023-04-15T04:51:38;98279.56;;;0.73;85.16
75594;BME280;64176;49.156;7.810;2023-04-15T04:54:22;98284.81;;;0.80;85.12
75594;BME280;64176;49.156;7.810;2023-04-15T04:57:10;98286.59;;;0.25;86.82
75594;BME280;64176;49.156;7.810;2023-04-15T04:59:57;98285.09;;;0.30;87.03
75594;BME280;64176;49.156;7.810;2023-04-15T05:02:46;98283.63;;;0.39;86.27
75594;BME280;64176;49.156;7.810;2023-04-15T05:05:33;98288.41;;;0.58;85.56
75594;BME280;64176;49.156;7.810;2023-04-15T05:08:22;98285.75;;;0.53;85.34
75594;BME280;64176;49.156;7.810;2023-04-15T05:11:08;98286.03;;;0.62;84.97
75594;BME280;64176;49.156;7.810;2023-04-15T05:13:52;98287.38;;;0.51;85.45
75594;BME280;64176;49.156;7.810;2023-04-15T05:16:39;98296.50;;;0.73;85.28
75594;BME280;64176;49.156;7.810;2023-04-15T05:19:25;98290.53;;;0.72;85.11
75594;BME280;64176;49.156;7.810;2023-04-15T05:22:09;98287.63;;;0.90;84.66
75594;BME280;64176;49.156;7.810;2023-04-15T05:24:58;98287.78;;;0.95;84.35
75594;BME280;64176;49.156;7.810;2023-04-15T05:27:42;98295.50;;;0.98;84.57
75594;BME280;64176;49.156;7.810;2023-04-15T05:30:29;98305.75;;;1.01;84.49
75594;BME280;64176;49.156;7.810;2023-04-15T05:33:13;98293.50;;;1.18;84.03
75594;BME280;64176;49.156;7.810;2023-04-15T05:36:02;98290.81;;;1.13;84.02
75594;BME280;64176;49.156;7.810;2023-04-15T05:38:48;98309.13;;;1.31;83.20
75594;BME280;64176;49.156;7.810;2023-04-15T05:41:35;98300.59;;;1.29;83.45
75594;BME280;64176;49.156;7.810;2023-04-15T05:44:23;98305.97;;;1.40;83.49
75594;BME280;64176;49.156;7.810;2023-04-15T05:47:10;98297.31;;;1.35;84.10
75594;BME280;64176;49.156;7.810;2023-04-15T05:49:57;98301.81;;;1.43;83.18
75594;BME280;64176;49.156;7.810;2023-04-15T05:52:42;98286.69;;;1.50;83.18
75594;BME280;64176;49.156;7.810;2023-04-15T05:55:28;98282.69;;;1.59;82.71
75594;BME280;64176;49.156;7.810;2023-04-15T05:58:12;98305.56;;;1.58;83.57
75594;BME280;64176;49.156;7.810;2023-04-15T06:00:59;98297.78;;;1.86;82.68
75594;BME280;64176;49.156;7.810;2023-04-15T06:03:45;98299.69;;;1.95;82.69
75594;BME280;64176;49.156;7.810;2023-04-15T06:06:32;98292.78;;;1.91;83.09
75594;BME280;64176;49.156;7.810;2023-04-15T06:09:16;98289.25;;;2.22;82.23
75594;BME280;64176;49.156;7.810;2023-04-15T06:12:00;98301.13;;;2.21;82.16
75594;BME280;64176;49.156;7.810;2023-04-15T06:14:47;98300.06;;;2.49;81.58
75594;BME280;64176;49.156;7.810;2023-04-15T06:17:34;98299.59;;;2.67;81.62
75594;BME280;64176;49.156;7.810;2023-04-15T06:20:18;98294.69;;;2.74;81.60
75594;BME280;64176;49.156;7.810;2023-04-15T06:23:04;98312.50;;;2.73;81.63
75594;BME280;64176;49.156;7.810;2023-04-15T06:25:50;98311.81;;;2.81;81.89
75594;BME280;64176;49.156;7.810;2023-04-15T06:28:37;98314.72;;;3.00;81.80
75594;BME280;64176;49.156;7.810;2023-04-15T06:31:26;98318.72;;;3.29;80.41
75594;BME280;64176;49.156;7.810;2023-04-15T06:34:13;98325.06;;;3.49;79.38
75594;BME280;64176;49.156;7.810;2023-04-15T06:36:59;98317.69;;;3.66;78.21
75594;BME280;64176;49.156;7.810;2023-04-15T06:39:44;98297.50;;;3.80;78.30
75594;BME280;64176;49.156;7.810;2023-04-15T06:42:30;98319.88;;;3.94;78.22
75594;BME280;64176;49.156;7.810;2023-04-15T06:45:14;98322.66;;;4.07;78.11
75594;BME280;64176;49.156;7.810;2023-04-15T06:48:03;98328.88;;;4.24;77.33
75594;BME280;64176;49.156;7.810;2023-04-15T06:50:50;98305.66;;;4.12;76.95
75594;BME280;64176;49.156;7.810;2023-04-15T06:53:34;98314.81;;;4.55;75.92
75594;BME280;64176;49.156;7.810;2023-04-15T06:56:19;98314.16;;;5.37;73.11
75594;BME280;64176;49.156;7.810;2023-04-15T06:59:04;98298.59;;;6.04;71.01
75594;BME280;64176;49.156;7.810;2023-04-15T07:01:52;98307.13;;;6.04;70.17
75594;BME280;64176;49.156;7.810;2023-04-15T07:04:36;98302.22;;;6.33;70.07
75594;BME280;64176;49.156;7.810;2023-04-15T07:07:20;98294.88;;;6.96;68.21
75594;BME280;64176;49.156;7.810;2023-04-15T07:10:07;98293.94;;;6.80;67.34
75594;BME280;64176;49.156;7.810;2023-04-15T07:12:51;98293.16;;;7.01;66.46
75594;BME280;64176;49.156;7.810;2023-04-15T07:15:35;98274.38;;;7.18;66.43
75594;BME280;64176;49.156;7.810;2023-04-15T07:18:24;98289.03;;;7.54;66.68
75594;BME280;64176;49.156;7.810;2023-04-15T07:21:09;98295.88;;;7.48;66.12
75594;BME280;64176;49.156;7.810;2023-04-15T07:23:55;98290.78;;;7.71;64.67
75594;BME280;64176;49.156;7.810;2023-04-15T07:26:39;98296.78;;;7.77;65.30
75594;BME280;64176;49.156;7.810;2023-04-15T07:29:28;98286.53;;;8.04;63.85
75594;BME280;64176;49.156;7.810;2023-04-15T07:32:15;98288.22;;;8.25;62.66
75594;BME280;64176;49.156;7.810;2023-04-15T07:34:59;98289.09;;;8.01;62.94
75594;BME280;64176;49.156;7.810;2023-04-15T07:37:44;98292.50;;;8.02;64.12
75594;BME280;64176;49.156;7.810;2023-04-15T07:40:31;98284.78;;;8.20;64.09
75594;BME280;64176;49.156;7.810;2023-04-15T07:43:20;98275.34;;;8.45;63.42
75594;BME280;64176;49.156;7.810;2023-04-15T07:46:09;98278.69;;;8.73;63.00
75594;BME280;64176;49.156;7.810;2023-04-15T07:48:53;98279.47;;;9.01;62.73
75594;BME280;64176;49.156;7.810;2023-04-15T07:51:37;98297.47;;;9.11;62.39
75594;BME280;64176;49.156;7.810;2023-04-15T07:54:24;98281.63;;;9.72;61.05
75594;BME280;64176;49.156;7.810;2023-04-15T07:57:08;98284.22;;;9.72;61.02
75594;BME280;64176;49.156;7.810;2023-04-15T07:59:53;98285.97;;;9.72;61.08
75594;BME280;64176;49.156;7.810;2023-04-15T08:02:39;98292.75;;;9.83;60.98
75594;BME280;64176;49.156;7.810;2023-04-15T08:05:26;98290.06;;;9.96;60.84
75594;BME280;64176;49.156;7.810;2023-04-15T08:08:12;98289.41;;;9.69;59.86
75594;BME280;64176;49.156;7.810;2023-04-15T08:10:57;98284.13;;;9.84;59.88
75594;BME280;64176;49.156;7.810;2023-04-15T08:13:41;98290.78;;;10.16;58.98
75594;BME280;64176;49.156;7.810;2023-04-15T08:16:28;98288.09;;;10.30;58.09
75594;BME280;64176;49.156;7.810;2023-04-15T08:19:12;98287.66;;;10.75;57.52
75594;BME280;64176;49.156;7.810;2023-04-15T08:21:56;98286.66;;;10.87;57.53
75594;BME280;64176;49.156;7.810;2023-04-15T08:24:42;98296.03;;;10.95;57.51
75594;BME280;64176;49.156;7.810;2023-04-15T08:27:26;98292.66;;;10.89;58.61
75594;BME280;64176;49.156;7.810;2023-04-15T08:30:11;98296.25;;;10.74;59.51
75594;BME280;64176;49.156;7.810;2023-04-15T08:32:55;98295.38;;;10.80;58.61
75594;BME280;64176;49.156;7.810;2023-04-15T08:35:39;98285.56;;;11.05;58.58
75594;BME280;64176;49.156;7.810;2023-04-15T08:38:24;98300.03;;;11.22;58.93
75594;BME280;64176;49.156;7.810;2023-04-15T08:41:16;98300.66;;;11.38;57.77
75594;BME280;64176;49.156;7.810;2023-04-15T08:44:04;98305.09;;;11.28;57.87
75594;BME280;64176;49.156;7.810;2023-04-15T08:46:50;98292.47;;;11.06;56.57
75594;BME280;64176;49.156;7.810;2023-04-15T08:49:39;98305.97;;;11.27;57.01
75594;BME280;64176;49.156;7.810;2023-04-15T08:52:26;98299.72;;;11.45;57.10
75594;BME280;64176;49.156;7.810;2023-04-15T08:55:13;98300.47;;;11.53;57.21
75594;BME280;64176;49.156;7.810;2023-04-15T08:58:01;98301.19;;;11.64;56.85
75594;BME280;64176;49.156;7.810;2023-04-15T09:00:48;98305.34;;;11.75;56.77
75594;BME280;64176;49.156;7.810;2023-04-15T09:03:35;98300.94;;;11.83;56.17
75594;BME280;64176;49.156;7.810;2023-04-15T09:06:24;98301.78;;;11.83;54.71
75594;BME280;64176;49.156;7.810;2023-04-15T09:09:12;98307.63;;;11.97;55.16
75594;BME280;64176;49.156;7.810;2023-04-15T09:11:59;98299.66;;;12.10;52.33
75594;BME280;64176;49.156;7.810;2023-04-15T09:14:47;98303.13;;;12.09;51.57
75594;BME280;64176;49.156;7.810;2023-04-15T09:17:32;98295.47;;;12.02;50.08
75594;BME280;64176;49.156;7.810;2023-04-15T09:20:22;98296.09;;;12.17;49.91
75594;BME280;64176;49.156;7.810;2023-04-15T09:23:14;98311.53;;;12.24;48.92
75594;BME280;64176;49.156;7.810;2023-04-15T09:25:58;98306.06;;;12.39;49.41
75594;BME280;64176;49.156;7.810;2023-04-15T09:28:44;98310.19;;;12.50;48.52
75594;BME280;64176;49.156;7.810;2023-04-15T09:31:28;98300.72;;;12.49;47.96
75594;BME280;64176;49.156;7.810;2023-04-15T09:34:13;98315.94;;;12.68;47.41
75594;BME280;64176;49.156;7.810;2023-04-15T09:36:59;98307.53;;;12.54;47.64
75594;BME280;64176;49.156;7.810;2023-04-15T09:39:51;98308.28;;;12.61;46.86
75594;BME280;64176;49.156;7.810;2023-04-15T09:42:53;98308.88;;;12.75;47.38
75594;BME280;64176;49.156;7.810;2023-04-15T09:45:38;98308.72;;;12.83;46.26
75594;BME280;64176;49.156;7.810;2023-04-15T09:48:34;98317.25;;;12.91;46.87
75594;BME280;64176;49.156;7.810;2023-04-15T09:51:33;98305.06;;;12.94;47.28
75594;BME280;64176;49.156;7.810;2023-04-15T09:54:18;98313.34;;;13.15;46.15
75594;BME280;64176;49.156;7.810;2023-04-15T09:57:08;98310.88;;;13.07;45.87
75594;BME280;64176;49.156;7.810;2023-04-15T09:59:57;98315.38;;;13.42;44.14
75594;BME280;64176;49.156;7.810;2023-04-15T10:02:45;98309.16;;;13.49;43.85
75594;BME280;64176;49.156;7.810;2023-04-15T10:05:31;98286.91;;;13.37;44.28
75594;BME280;64176;49.156;7.810;2023-04-15T10:08:20;98310.03;;;13.48;43.89
75594;BME280;64176;49.156;7.810;2023-04-15T10:11:08;98313.19;;;13.62;44.62
75594;BME280;64176;49.156;7.810;2023-04-15T10:13:52;98318.75;;;13.47;42.39
75594;BME280;64176;49.156;7.810;2023-04-15T10:16:38;98308.28;;;13.50;43.04
75594;BME280;64176;49.156;7.810;2023-04-15T10:19:30;98326.31;;;13.56;42.59
75594;BME280;64176;49.156;7.810;2023-04-15T10:22:17;98311.84;;;13.01;43.39
75594;BME280;64176;49.156;7.810;2023-04-15T10:25:04;98336.13;;;12.97;43.63
75594;BME280;64176;49.156;7.810;2023-04-15T10:27:49;98325.78;;;12.96;43.41
75594;BME280;64176;49.156;7.810;2023-04-15T10:30:35;98333.47;;;13.02;43.57
75594;BME280;64176;49.156;7.810;2023-04-15T10:33:22;98331.81;;;12.98;41.80
75594;BME280;64176;49.156;7.810;2023-04-15T10:36:10;98323.13;;;12.99;42.16
75594;BME280;64176;49.156;7.810;2023-04-15T10:38:54;98328.84;;;13.18;42.53
75594;BME280;64176;49.156;7.810;2023-04-15T10:41:41;98344.22;;;13.27;42.07
75594;BME280;64176;49.156;7.810;2023-04-15T10:44:25;98340.56;;;13.37;37.92
75594;BME280;64176;49.156;7.810;2023-04-15T10:47:16;98333.84;;;13.27;36.68
75594;BME280;64176;49.156;7.810;2023-04-15T10:50:04;98325.75;;;13.42;37.87
75594;BME280;64176;49.156;7.810;2023-04-15T10:52:53;98345.13;;;13.67;37.33
75594;BME280;64176;49.156;7.810;2023-04-15T10:55:40;98346.75;;;13.71;38.06
75594;BME280;64176;49.156;7.810;2023-04-15T10:58:40;98347.41;;;13.81;37.44
75594;BME280;64176;49.156;7.810;2023-04-15T11:01:51;98344.91;;;13.76;37.25
75594;BME280;64176;49.156;7.810;2023-04-15T11:04:55;98351.78;;;13.80;38.54
75594;BME280;64176;49.156;7.810;2023-04-15T11:13:20;98364.88;;;13.74;38.52
75594;BME280;64176;49.156;7.810;2023-04-15T11:16:05;98357.38;;;13.61;39.25
75594;BME280;64176;49.156;7.810;2023-04-15T11:18:58;98358.53;;;13.47;39.03
75594;BME280;64176;49.156;7.810;2023-04-15T11:21:42;98377.31;;;13.59;39.24
75594;BME280;64176;49.156;7.810;2023-04-15T11:24:26;98373.31;;;13.44;39.11
75594;BME280;64176;49.156;7.810;2023-04-15T11:27:19;98387.44;;;13.71;38.83
75594;BME280;64176;49.156;7.810;2023-04-15T11:30:24;98389.34;;;13.63;38.36
75594;BME280;64176;49.156;7.810;2023-04-15T11:33:11;98385.19;;;13.56;39.94
75594;BME280;64176;49.156;7.810;2023-04-15T11:36:00;98382.97;;;13.79;40.23
75594;BME280;64176;49.156;7.810;2023-04-15T11:38:46;98382.22;;;13.72;39.73
75594;BME280;64176;49.156;7.810;2023-04-15T11:41:30;98391.41;;;13.89;38.81
75594;BME280;64176;49.156;7.810;2023-04-15T11:44:20;98366.44;;;13.81;38.14
75594;BME280;64176;49.156;7.810;2023-04-15T11:47:23;98387.97;;;13.87;37.65
75594;BME280;64176;49.156;7.810;2023-04-15T11:50:18;98389.75;;;14.23;37.28
75594;BME280;64176;49.156;7.810;2023-04-15T11:53:04;98395.63;;;14.31;37.17
75594;BME280;64176;49.156;7.810;2023-04-15T11:55:54;98397.88;;;14.09;35.90
75594;BME280;64176;49.156;7.810;2023-04-15T11:58:38;98370.97;;;13.72;34.94
75594;BME280;64176;49.156;7.810;2023-04-15T12:01:32;98405.22;;;13.91;34.48
75594;BME280;64176;49.156;7.810;2023-04-15T12:04:17;98410.13;;;14.03;35.19
75594;BME280;64176;49.156;7.810;2023-04-15T12:07:10;98415.53;;;13.94;35.87
75594;BME280;64176;49.156;7.810;2023-04-15T12:09:56;98416.59;;;13.83;35.22
75594;BME280;64176;49.156;7.810;2023-04-15T12:12:40;98415.56;;;13.92;35.36
75594;BME280;64176;49.156;7.810;2023-04-15T12:15:27;98414.84;;;13.85;35.27
75594;BME280;64176;49.156;7.810;2023-04-15T12:18:17;98431.91;;;13.97;34.95
75594;BME280;64176;49.156;7.810;2023-04-15T12:21:09;98437.88;;;14.02;36.06
75594;BME280;64176;49.156;7.810;2023-04-15T12:24:00;98434.88;;;14.20;37.01
75594;BME280;64176;49.156;7.810;2023-04-15T12:26:47;98451.38;;;14.18;36.49
75594;BME280;64176;49.156;7.810;2023-04-15T12:29:35;98442.13;;;14.05;36.87
75594;BME280;64176;49.156;7.810;2023-04-15T12:32:22;98447.22;;;14.11;35.76
75594;BME280;64176;49.156;7.810;2023-04-15T12:35:08;98451.16;;;14.27;36.20
75594;BME280;64176;49.156;7.810;2023-04-15T12:37:54;98462.78;;;14.51;34.78
75594;BME280;64176;49.156;7.810;2023-04-15T12:40:39;98455.19;;;14.42;33.95
75594;BME280;64176;49.156;7.810;2023-04-15T12:43:24;98462.97;;;14.43;33.14
75594;BME280;64176;49.156;7.810;2023-04-15T12:46:08;98461.81;;;14.56;33.43
75594;BME280;64176;49.156;7.810;2023-04-15T12:48:53;98444.25;;;14.26;34.19
75594;BME280;64176;49.156;7.810;2023-04-15T12:51:41;98467.09;;;14.12;34.03
75594;BME280;64176;49.156;7.810;2023-04-15T12:54:28;98468.75;;;14.14;36.70
75594;BME280;64176;49.156;7.810;2023-04-15T12:57:12;98477.47;;;14.13;36.59
75594;BME280;64176;49.156;7.810;2023-04-15T12:59:56;98473.88;;;14.19;36.96
75594;BME280;64176;49.156;7.810;2023-04-15T13:02:45;98466.03;;;14.20;36.90
75594;BME280;64176;49.156;7.810;2023-04-15T13:05:31;98484.78;;;13.95;38.03
75594;BME280;64176;49.156;7.810;2023-04-15T13:08:15;98494.34;;;13.93;38.98
75594;BME280;64176;49.156;7.810;2023-04-15T13:11:00;98490.16;;;13.85;39.46
75594;BME280;64176;49.156;7.810;2023-04-15T13:13:46;98491.44;;;13.65;38.28
75594;BME280;64176;49.156;7.810;2023-04-15T13:16:32;98491.94;;;13.82;39.26
75594;BME280;64176;49.156;7.810;2023-04-15T13:19:21;98487.25;;;14.02;37.26
75594;BME280;64176;49.156;7.810;2023-04-15T13:22:07;98488.63;;;14.17;35.86
75594;BME280;64176;49.156;7.810;2023-04-15T13:24:51;98489.16;;;14.34;35.16
75594;BME280;64176;49.156;7.810;2023-04-15T13:27:35;98484.69;;;13.99;33.24
75594;BME280;64176;49.156;7.810;2023-04-15T13:30:22;98496.38;;;14.20;33.08
75594;BME280;64176;49.156;7.810;2023-04-15T13:33:11;98493.19;;;14.47;32.78
75594;BME280;64176;49.156;7.810;2023-04-15T13:35:58;98495.34;;;14.69;33.33
75594;BME280;64176;49.156;7.810;2023-04-15T13:38:44;98491.44;;;14.86;32.46
75594;BME280;64176;49.156;7.810;2023-04-15T13:41:29;98496.88;;;15.13;30.85
75594;BME280;64176;49.156;7.810;2023-04-15T13:44:16;98493.78;;;14.97;31.42
75594;BME280;64176;49.156;7.810;2023-04-15T13:47:00;98493.06;;;14.90;31.43
75594;BME280;64176;49.156;7.810;2023-04-15T13:49:46;98499.63;;;14.70;31.44
75594;BME280;64176;49.156;7.810;2023-04-15T13:52:33;98501.03;;;14.83;32.22
75594;BME280;64176;49.156;7.810;2023-04-15T13:55:20;98503.34;;;14.95;33.37
75594;BME280;64176;49.156;7.810;2023-04-15T13:58:06;98512.34;;;14.45;32.89
75594;BME280;64176;49.156;7.810;2023-04-15T14:00:53;98518.81;;;14.24;33.58
75594;BME280;64176;49.156;7.810;2023-04-15T14:03:42;98516.22;;;14.24;34.13
75594;BME280;64176;49.156;7.810;2023-04-15T14:06:27;98528.41;;;14.20;34.91
75594;BME280;64176;49.156;7.810;2023-04-15T14:09:11;98533.22;;;13.97;35.69
75594;BME280;64176;49.156;7.810;2023-04-15T14:11:58;98522.91;;;13.93;36.06
75594;BME280;64176;49.156;7.810;2023-04-15T14:14:43;98536.50;;;14.05;36.32
75594;BME280;64176;49.156;7.810;2023-04-15T14:17:32;98538.59;;;13.88;35.76
75594;BME280;64176;49.156;7.810;2023-04-15T14:20:16;98543.00;;;13.83;36.99
75594;BME280;64176;49.156;7.810;2023-04-15T14:23:00;98551.69;;;13.82;36.99
75594;BME280;64176;49.156;7.810;2023-04-15T14:25:46;98548.25;;;13.81;37.34
75594;BME280;64176;49.156;7.810;2023-04-15T14:28:30;98557.09;;;13.71;38.02
75594;BME280;64176;49.156;7.810;2023-04-15T14:31:17;98557.91;;;13.73;37.60
75594;BME280;64176;49.156;7.810;2023-04-15T14:34:06;98565.94;;;13.60;37.78
75594;BME280;64176;49.156;7.810;2023-04-15T14:36:51;98559.34;;;13.43;37.56
75594;BME280;64176;49.156;7.810;2023-04-15T14:39:39;98572.13;;;13.54;37.18
75594;BME280;64176;49.156;7.810;2023-04-15T14:42:23;98592.91;;;13.53;38.04
75594;BME280;64176;49.156;7.810;2023-04-15T14:45:08;98593.97;;;13.42;37.79
75594;BME280;64176;49.156;7.810;2023-04-15T14:47:53;98590.50;;;13.42;38.29
75594;BME280;64176;49.156;7.810;2023-04-15T14:50:37;98596.56;;;13.42;37.22
75594;BME280;64176;49.156;7.810;2023-04-15T14:53:26;98590.56;;;13.37;36.20